Time;durP1;ratioP1;P1;durP2;ratioP2;P2;SDS_P1;SDS_P2;PMS_P1;PMS_P2;Temp;Humidity;BMP_temperature;BMP_pressure;BME280_temperature;BME280_humidity;BME280_pressure;Samples;Min_cycle;Max_cycle;Signal;HPM_P1;HPM_P2
2023/03/02 00:01:10;;;;;;;;;;;;;;;;;;5095691;28;19955;-69
2023/03/02 00:03:36;;;;;;;;;;;;;;;;;;5095203;28;19908;-68
2023/03/02 00:06:02;;;;;;;;;;;;;;;;;;5095571;28;19908;-68
2023/03/02 00:08:28;;;;;;;;;;;;;;;;;;5095540;28;19958;-68
2023/03/02 00:10:54;;;;;;;;;;;;;;;;;;5095215;28;19909;-68
2023/03/02 00:13:20;;;;;;;;;;;;;;;;;;5095486;28;19999;-68
2023/03/02 00:15:46;;;;;;;;;;;;;;;;;;5095372;28;19909;-68
2023/03/02 00:18:12;;;;;;;;;;;;;;;;;;5094956;28;19980;-68
2023/03/02 00:20:38;;;;;;;;;;;;;;;;;;5094091;28;19923;-68
2023/03/02 00:23:04;;;;;;;;;;;;;;;;;;5095222;28;19913;-68
2023/03/02 00:25:30;;;;;;;;;;;;;;;;;;5094712;28;19995;-68
2023/03/02 00:27:56;;;;;;;;;;;;;;;;;;5095150;28;19919;-68
2023/03/02 00:30:22;;;;;;;;;;;;;;;;;;5095112;28;19908;-68
2023/03/02 00:32:48;;;;;;;;;;;;;;;;;;5094796;28;19939;-68
2023/03/02 00:35:13;;;;;;;;;;;;;;;;;;5076824;28;19915;-68
2023/03/02 00:37:39;;;;;;;;;;;;;;;;;;5094910;28;19908;-69
2023/03/02 00:40:05;;;;;;;;;;;;;;;;;;5094442;28;19954;-69
2023/03/02 00:42:31;;;;;;;;;;;;;;;;;;5095043;28;19959;-68
2023/03/02 00:45:00;;;;;;;;;;;;;;;;;;5094763;28;19934;-68
2023/03/02 00:47:26;;;;;;;;;;;;;;;;;;5076199;28;19909;-68
2023/03/02 00:49:52;;;;;;;;;;;;;;;;;;5076551;28;19995;-69
2023/03/02 00:52:18;;;;;;;;;;;;;;;;;;5076506;28;20346;-68
2023/03/02 00:54:44;;;;;;;;;;;;;;;;;;5075858;28;20323;-68
2023/03/02 00:57:10;;;;;;;;;;;;;;;;;;5094661;28;19961;-68
2023/03/02 00:59:36;;;;;;;;;;;;;;;;;;5094564;28;20293;-68
2023/03/02 01:02:01;;;;;;;;;;;;;;;;;;5094083;28;19916;-68
2023/03/02 01:04:29;;;;;;;;;;;;;;;;;;5094514;28;19915;-68
2023/03/02 01:06:55;;;;;;;;;;;;;;;;;;5094181;28;19999;-68
2023/03/02 01:09:21;;;;;;;;;;;;;;;;;;5094430;28;20431;-68
2023/03/02 01:11:47;;;;;;;;;;;;;;;;;;5094334;28;19915;-68
2023/03/02 01:14:14;;;;;;;;;;;;;;;;;;5075762;28;19908;-68
2023/03/02 01:16:40;;;;;;;;;;;;;;;;;;5076180;28;20274;-69
2023/03/02 01:19:06;;;;;;;;;;;;;;;;;;5076084;28;19912;-68
2023/03/02 01:21:31;;;;;;;;;;;;;;;;;;5075578;28;19973;-68
2023/03/02 01:23:57;;;;;;;;;;;;;;;;;;5094503;28;19908;-69
2023/03/02 01:26:23;;;;;;;;;;;;;;;;;;5076053;28;19916;-69
2023/03/02 01:28:54;;;;;;;;;;;;;;;;;;5093928;28;19912;-68
2023/03/02 01:31:20;;;;;;;;;;;;;;;;;;5075628;28;19916;-69
2023/03/02 01:33:46;;;;;;;;;;;;;;;;;;5094087;28;19912;-68
2023/03/02 01:36:11;;;;;;;;;;;;;;;;;;5093795;28;19915;-70
2023/03/02 01:38:37;;;;;;;;;;;;;;;;;;5094209;28;19913;-68
2023/03/02 01:41:03;;;;;;;;;;;;;;;;;;5075780;28;20008;-68
2023/03/02 01:43:29;;;;;;;;;;;;;;;;;;5093781;28;19912;-68
2023/03/02 01:45:56;;;;;;;;;;;;;;;;;;5093888;28;19912;-68
2023/03/02 01:48:22;;;;;;;;;;;;;;;;;;5075808;28;19908;-68
2023/03/02 01:50:48;;;;;;;;;;;;;;;;;;5093769;28;19912;-68
2023/03/02 01:53:14;;;;;;;;;;;;;;;;;;5093628;28;19917;-67
2023/03/02 01:55:43;;;;;;;;;;;;;;;;;;5093023;28;20475;-68
2023/03/02 01:58:08;;;;;;;;;;;;;;;;;;5093390;28;19908;-68
2023/03/02 02:00:34;;;;;;;;;;;;;;;;;;5094340;28;20406;-68
2023/03/02 02:03:07;;;;;;;;;;;;;;;;;;5093719;28;20361;-68
2023/03/02 02:05:33;;;;;;;;;;;;;;;;;;5075317;28;20266;-68
2023/03/02 02:07:59;;;;;;;;;;;;;;;;;;5093761;28;19953;-68
2023/03/02 02:10:25;;;;;;;;;;;;;;;;;;5093933;28;19951;-68
2023/03/02 02:12:51;;;;;;;;;;;;;;;;;;5093681;28;19908;-68
2023/03/02 02:15:17;;;;;;;;;;;;;;;;;;5093795;28;19908;-68
2023/03/02 02:17:43;;;;;;;;;;;;;;;;;;5093428;28;19954;-68
2023/03/02 02:20:09;;;;;;;;;;;;;;;;;;5093581;28;19908;-68
2023/03/02 02:22:35;;;;;;;;;;;;;;;;;;5093630;28;20038;-68
2023/03/02 02:25:01;;;;;;;;;;;;;;;;;;5075087;28;19978;-68
2023/03/02 02:27:28;;;;;;;;;;;;;;;;;;5093506;28;19908;-68
2023/03/02 02:29:57;;;;;;;;;;;;;;;;;;5093517;28;20369;-68
2023/03/02 02:32:22;;;;;;;;;;;;;;;;;;5093032;28;20005;-68
2023/03/02 02:34:48;;;;;;;;;;;;;;;;;;5075346;28;19936;-68
2023/03/02 02:37:14;;;;;;;;;;;;;;;;;;5093384;28;19927;-68
2023/03/02 02:39:40;;;;;;;;;;;;;;;;;;5093001;28;19931;-68
2023/03/02 02:42:06;;;;;;;;;;;;;;;;;;5093276;28;20010;-68
2023/03/02 02:44:32;;;;;;;;;;;;;;;;;;5095292;28;19908;-68
2023/03/02 02:46:58;;;;;;;;;;;;;;;;;;5096734;28;19977;-68
2023/03/02 02:49:24;;;;;;;;;;;;;;;;;;5078886;28;19995;-68
2023/03/02 02:51:50;;;;;;;;;;;;;;;;;;5078796;28;19908;-68
2023/03/02 02:54:16;;;;;;;;;;;;;;;;;;5096453;28;19920;-68
2023/03/02 02:56:42;;;;;;;;;;;;;;;;;;5096893;28;19908;-68
2023/03/02 02:59:08;;;;;;;;;;;;;;;;;;5096909;28;19915;-68
2023/03/02 03:01:34;;;;;;;;;;;;;;;;;;5096403;28;19923;-68
2023/03/02 03:04:00;;;;;;;;;;;;;;;;;;5078572;28;19908;-68
2023/03/02 03:06:26;;;;;;;;;;;;;;;;;;5096739;28;19955;-68
2023/03/02 03:08:52;;;;;;;;;;;;;;;;;;5096316;28;19986;-68
2023/03/02 03:11:25;;;;;;;;;;;;;;;;;;5096748;28;20365;-68
2023/03/02 03:13:51;;;;;;;;;;;;;;;;;;5096424;28;20273;-68
2023/03/02 03:16:17;;;;;;;;;;;;;;;;;;5096593;28;19908;-68
2023/03/02 03:18:43;;;;;;;;;;;;;;;;;;5096803;28;19915;-68
2023/03/02 03:21:09;;;;;;;;;;;;;;;;;;5095856;28;19916;-68
2023/03/02 03:23:37;;;;;;;;;;;;;;;;;;5096458;28;19973;-68
2023/03/02 03:26:02;;;;;;;;;;;;;;;;;;5096604;28;19940;-68
2023/03/02 03:28:28;;;;;;;;;;;;;;;;;;5095918;28;19916;-68
2023/03/02 03:30:55;;;;;;;;;;;;;;;;;;5096537;28;20129;-68
2023/03/02 03:33:20;;;;;;;;;;;;;;;;;;5078056;28;19908;-68
2023/03/02 03:35:46;;;;;;;;;;;;;;;;;;5095788;28;19908;-68
2023/03/02 03:38:12;;;;;;;;;;;;;;;;;;5096666;28;20345;-68
2023/03/02 03:40:38;;;;;;;;;;;;;;;;;;5095999;28;20273;-69
2023/03/02 03:43:04;;;;;;;;;;;;;;;;;;5095653;28;20283;-68
2023/03/02 03:45:30;;;;;;;;;;;;;;;;;;5095963;28;20360;-68
2023/03/02 03:47:56;;;;;;;;;;;;;;;;;;5095976;28;20384;-68
2023/03/02 03:50:22;;;;;;;;;;;;;;;;;;5095512;28;19908;-68
2023/03/02 03:52:48;;;;;;;;;;;;;;;;;;5077582;28;19908;-68
2023/03/02 03:55:14;;;;;;;;;;;;;;;;;;5077453;28;19973;-68
2023/03/02 03:57:40;;;;;;;;;;;;;;;;;;5095316;28;19912;-68
2023/03/02 04:00:06;;;;;;;;;;;;;;;;;;5095794;28;19912;-68
2023/03/02 04:02:32;;;;;;;;;;;;;;;;;;5077531;28;19922;-68
2023/03/02 04:05:05;;;;;;;;;;;;;;;;;;5077050;28;19908;-68
2023/03/02 04:07:31;;;;;;;;;;;;;;;;;;5077444;28;19999;-69
2023/03/02 04:10:02;;;;;;;;;;;;;;;;;;5076948;28;19950;-68
2023/03/02 04:12:28;;;;;;;;;;;;;;;;;;5077353;28;19908;-69
2023/03/02 04:14:54;;;;;;;;;;;;;;;;;;5095685;28;20010;-68
2023/03/02 04:17:20;;;;;;;;;;;;;;;;;;5095020;28;19908;-68
2023/03/02 04:19:46;;;;;;;;;;;;;;;;;;5077185;28;19908;-69
2023/03/02 04:22:14;;;;;;;;;;;;;;;;;;5095497;28;20358;-69
2023/03/02 04:24:39;;;;;;;;;;;;;;;;;;5094844;28;19908;-68
2023/03/02 04:27:05;;;;;;;;;;;;;;;;;;5095219;28;19919;-68
2023/03/02 04:29:31;;;;;;;;;;;;;;;;;;5095197;28;19916;-69
2023/03/02 04:31:57;;;;;;;;;;;;;;;;;;5094661;28;19908;-68
2023/03/02 04:34:26;;;;;;;;;;;;;;;;;;5076945;28;19959;-68
2023/03/02 04:36:52;;;;;;;;;;;;;;;;;;5095619;28;20008;-69
2023/03/02 04:39:18;;;;;;;;;;;;;;;;;;5094727;28;19951;-68
2023/03/02 04:41:44;;;;;;;;;;;;;;;;;;5095023;28;19942;-68
2023/03/02 04:44:10;;;;;;;;;;;;;;;;;;5094892;28;19908;-69
2023/03/02 04:46:36;;;;;;;;;;;;;;;;;;5094485;28;20358;-69
2023/03/02 04:49:03;;;;;;;;;;;;;;;;;;5094823;28;20427;-68
2023/03/02 04:51:29;;;;;;;;;;;;;;;;;;5094773;28;19998;-68
2023/03/02 04:53:55;;;;;;;;;;;;;;;;;;5094163;28;20006;-69
2023/03/02 04:56:20;;;;;;;;;;;;;;;;;;5094638;28;19909;-69
2023/03/02 04:58:46;;;;;;;;;;;;;;;;;;5094739;28;19908;-68
2023/03/02 05:01:12;;;;;;;;;;;;;;;;;;5094173;28;20076;-69
2023/03/02 05:03:38;;;;;;;;;;;;;;;;;;5076279;28;19908;-69
2023/03/02 05:06:04;;;;;;;;;;;;;;;;;;5094125;28;19915;-68
2023/03/02 05:08:30;;;;;;;;;;;;;;;;;;5094614;28;19915;-68
2023/03/02 05:10:59;;;;;;;;;;;;;;;;;;5094405;28;19908;-69
2023/03/02 05:13:25;;;;;;;;;;;;;;;;;;5093933;28;19912;-68
2023/03/02 05:15:52;;;;;;;;;;;;;;;;;;5094373;28;20399;-68
2023/03/02 05:18:18;;;;;;;;;;;;;;;;;;5094294;28;19914;-68
2023/03/02 05:20:44;;;;;;;;;;;;;;;;;;5093741;28;19915;-68
2023/03/02 05:23:10;;;;;;;;;;;;;;;;;;5094185;28;19972;-68
2023/03/02 05:25:36;;;;;;;;;;;;;;;;;;5094704;28;20361;-68
2023/03/02 05:28:02;;;;;;;;;;;;;;;;;;5093828;28;19908;-68
2023/03/02 05:30:28;;;;;;;;;;;;;;;;;;5093935;28;19908;-69
2023/03/02 05:32:54;;;;;;;;;;;;;;;;;;5094093;28;19912;-69
2023/03/02 05:35:20;;;;;;;;;;;;;;;;;;5093252;28;20248;-68
2023/03/02 05:37:46;;;;;;;;;;;;;;;;;;5092997;28;19916;-68
2023/03/02 05:40:11;;;;;;;;;;;;;;;;;;5094039;28;20029;-68
2023/03/02 05:42:37;;;;;;;;;;;;;;;;;;5093325;28;19973;-68
2023/03/02 05:45:03;;;;;;;;;;;;;;;;;;5092623;28;19915;-68
2023/03/02 05:47:29;;;;;;;;;;;;;;;;;;5093937;28;19908;-68
2023/03/02 05:49:55;;;;;;;;;;;;;;;;;;5093532;28;19912;-69
2023/03/02 05:52:22;;;;;;;;;;;;;;;;;;5073859;28;19959;-67
2023/03/02 05:54:48;;;;;;;;;;;;;;;;;;5073641;28;19999;-67
2023/03/02 05:57:13;;;;;;;;;;;;;;;;;;5074646;28;19998;-67
2023/03/02 05:59:40;;;;;;;;;;;;;;;;;;5092466;28;19908;-67
2023/03/02 06:02:05;;;;;;;;;;;;;;;;;;5093192;28;19977;-67
2023/03/02 06:04:31;;;;;;;;;;;;;;;;;;5092967;28;20373;-69
2023/03/02 06:06:57;;;;;;;;;;;;;;;;;;5093583;28;20366;-67
2023/03/02 06:09:23;;;;;;;;;;;;;;;;;;5093526;28;20269;-67
2023/03/02 06:11:49;;;;;;;;;;;;;;;;;;5093900;28;20258;-67
2023/03/02 06:14:15;;;;;;;;;;;;;;;;;;5075402;28;19920;-67
2023/03/02 06:16:41;;;;;;;;;;;;;;;;;;5093070;28;20400;-67
2023/03/02 06:19:07;;;;;;;;;;;;;;;;;;5078408;28;20073;-69
2023/03/02 06:21:33;;;;;;;;;;;;;;;;;;5090613;28;20378;-70
2023/03/02 06:23:59;;;;;;;;;;;;;;;;;;5104304;28;20277;-70
2023/03/02 06:26:25;;;;;;;;;;;;;;;;;;5095661;27;20018;-71
2023/03/02 06:28:51;;;;;;;;;;;;;;;;;;5073120;28;19912;-71
2023/03/02 06:31:17;;;;;;;;;;;;;;;;;;5114516;28;19918;-71
2023/03/02 06:33:43;;;;;;;;;;;;;;;;;;5109377;28;19908;-71
2023/03/02 06:36:11;;;;;;;;;;;;;;;;;;5087566;28;19916;-68
2023/03/02 06:38:37;;;;;;;;;;;;;;;;;;5112658;28;19908;-68
2023/03/02 06:41:03;;;;;;;;;;;;;;;;;;5113818;28;19912;-69
2023/03/02 06:43:29;;;;;;;;;;;;;;;;;;5113005;28;20377;-69
2023/03/02 06:45:55;;;;;;;;;;;;;;;;;;5087959;28;20118;-68
2023/03/02 06:48:21;;;;;;;;;;;;;;;;;;5091648;28;19977;-68
2023/03/02 06:50:47;;;;;;;;;;;;;;;;;;5103629;28;19947;-69
2023/03/02 06:53:14;;;;;;;;;;;;;;;;;;5089374;27;20441;-68
2023/03/02 06:55:40;;;;;;;;;;;;;;;;;;5102738;27;19948;-68
2023/03/02 06:58:06;;;;;;;;;;;;;;;;;;5113452;28;19920;-69
2023/03/02 07:00:32;;;;;;;;;;;;;;;;;;5094460;28;19954;-69
2023/03/02 07:02:58;;;;;;;;;;;;;;;;;;5111864;28;19912;-69
2023/03/02 07:05:24;;;;;;;;;;;;;;;;;;5094143;28;19931;-69
2023/03/02 07:07:49;;;;;;;;;;;;;;;;;;5080844;28;20388;-68
2023/03/02 07:10:15;;;;;;;;;;;;;;;;;;5089918;28;20274;-68
2023/03/02 07:12:41;;;;;;;;;;;;;;;;;;5096185;28;19908;-71
2023/03/02 07:15:12;;;;;;;;;;;;;;;;;;5099351;28;19908;-71
2023/03/02 07:17:38;;;;;;;;;;;;;;;;;;5102016;28;19966;-70
2023/03/02 07:20:05;;;;;;;;;;;;;;;;;;5079111;28;19960;-73
2023/03/02 07:22:31;;;;;;;;;;;;;;;;;;5088185;28;19916;-69
2023/03/02 07:24:57;;;;;;;;;;;;;;;;;;5114214;28;20384;-69
2023/03/02 07:27:22;;;;;;;;;;;;;;;;;;5083274;28;20273;-70
2023/03/02 07:29:48;;;;;;;;;;;;;;;;;;5092903;28;19912;-70
2023/03/02 07:32:14;;;;;;;;;;;;;;;;;;5093467;28;19953;-70
2023/03/02 07:34:40;;;;;;;;;;;;;;;;;;5092488;28;19909;-70
2023/03/02 07:37:06;;;;;;;;;;;;;;;;;;5110943;28;19954;-72
2023/03/02 07:39:32;;;;;;;;;;;;;;;;;;5114953;28;19912;-71
2023/03/02 07:41:58;;;;;;;;;;;;;;;;;;5113032;28;19922;-69
2023/03/02 07:44:24;;;;;;;;;;;;;;;;;;5111836;28;19911;-70
2023/03/02 07:46:50;;;;;;;;;;;;;;;;;;5076376;28;19914;-71
2023/03/02 07:49:16;;;;;;;;;;;;;;;;;;5092361;28;20370;-71
2023/03/02 07:51:42;;;;;;;;;;;;;;;;;;5093216;28;20418;-69
2023/03/02 07:54:08;;;;;;;;;;;;;;;;;;5075791;28;20329;-71
2023/03/02 07:56:34;;;;;;;;;;;;;;;;;;5103527;28;20301;-69
2023/03/02 07:59:00;;;;;;;;;;;;;;;;;;5107375;28;20327;-72
2023/03/02 08:01:26;;;;;;;;;;;;;;;;;;5080135;28;19984;-70
2023/03/02 08:03:52;;;;;;;;;;;;;;;;;;5076584;28;20023;-71
2023/03/02 08:06:18;;;;;;;;;;;;;;;;;;5103319;28;19915;-69
2023/03/02 08:08:44;;;;;;;;;;;;;;;;;;5085505;28;19916;-70
2023/03/02 08:11:10;;;;;;;;;;;;;;;;;;5099875;27;19926;-70
2023/03/02 08:13:36;;;;;;;;;;;;;;;;;;5101751;28;19916;-69
2023/03/02 08:16:02;;;;;;;;;;;;;;;;;;5099749;28;19939;-69
2023/03/02 08:18:28;;;;;;;;;;;;;;;;;;5102215;28;19994;-69
2023/03/02 08:20:54;;;;;;;;;;;;;;;;;;5101799;28;19950;-69
2023/03/02 08:23:20;;;;;;;;;;;;;;;;;;5105885;28;19915;-70
2023/03/02 08:25:45;;;;;;;;;;;;;;;;;;5103083;28;19915;-72
2023/03/02 08:28:11;;;;;;;;;;;;;;;;;;5094709;28;19919;-69
2023/03/02 08:30:37;;;;;;;;;;;;;;;;;;5091613;28;19976;-72
2023/03/02 08:33:03;;;;;;;;;;;;;;;;;;5090657;28;20018;-69
2023/03/02 08:35:29;;;;;;;;;;;;;;;;;;5094978;28;19916;-69
2023/03/02 08:37:55;;;;;;;;;;;;;;;;;;5110025;27;19920;-68
2023/03/02 08:40:21;;;;;;;;;;;;;;;;;;5105336;28;19912;-69
2023/03/02 08:42:48;;;;;;;;;;;;;;;;;;5087656;28;20014;-68
2023/03/02 08:45:14;;;;;;;;;;;;;;;;;;5105229;27;20396;-69
2023/03/02 08:47:40;;;;;;;;;;;;;;;;;;5132191;27;19909;-68
2023/03/02 08:50:06;;;;;;;;;;;;;;;;;;5101421;28;19919;-68
2023/03/02 08:52:33;;;;;;;;;;;;;;;;;;5093614;28;19912;-68
2023/03/02 08:54:58;;;;;;;;;;;;;;;;;;5101129;28;19920;-69
2023/03/02 08:57:24;;;;;;;;;;;;;;;;;;5112643;28;19919;-68
2023/03/02 08:59:51;;;;;;;;;;;;;;;;;;5106154;27;19912;-68
2023/03/02 09:02:17;;;;;;;;;;;;;;;;;;5112995;27;20281;-71
2023/03/02 09:04:43;;;;;;;;;;;;;;;;;;5126426;27;19922;-70
2023/03/02 09:07:09;;;;;;;;;;;;;;;;;;5089486;28;19916;-70
2023/03/02 09:09:35;;;;;;;;;;;;;;;;;;5102428;28;20426;-69
2023/03/02 09:12:01;;;;;;;;;;;;;;;;;;5106943;28;19912;-70
2023/03/02 09:14:27;;;;;;;;;;;;;;;;;;5098250;28;19912;-66
2023/03/02 09:16:53;;;;;;;;;;;;;;;;;;5091240;28;20008;-67
2023/03/02 09:19:19;;;;;;;;;;;;;;;;;;5101482;28;19911;-68
2023/03/02 09:21:45;;;;;;;;;;;;;;;;;;5092862;28;20010;-68
2023/03/02 09:24:11;;;;;;;;;;;;;;;;;;5083182;28;19907;-68
2023/03/02 09:26:37;;;;;;;;;;;;;;;;;;5087732;28;19965;-69
2023/03/02 09:29:03;;;;;;;;;;;;;;;;;;5092186;28;20378;-70
2023/03/02 09:31:29;;;;;;;;;;;;;;;;;;5104590;28;19920;-70
2023/03/02 09:33:55;;;;;;;;;;;;;;;;;;5095232;28;20268;-70
2023/03/02 09:36:21;;;;;;;;;;;;;;;;;;5073922;28;19912;-68
2023/03/02 09:38:47;;;;;;;;;;;;;;;;;;5103706;28;19908;-71
2023/03/02 09:41:13;;;;;;;;;;;;;;;;;;5099675;28;19916;-70
2023/03/02 09:43:39;;;;;;;;;;;;;;;;;;5087990;28;19931;-67
2023/03/02 09:46:05;;;;;;;;;;;;;;;;;;5088666;28;19950;-70
2023/03/02 09:48:31;;;;;;;;;;;;;;;;;;5087368;28;19995;-69
2023/03/02 09:50:57;;;;;;;;;;;;;;;;;;5087653;28;19908;-69
2023/03/02 09:53:23;;;;;;;;;;;;;;;;;;5090308;28;19926;-68
2023/03/02 09:55:49;;;;;;;;;;;;;;;;;;5085743;28;19908;-69
2023/03/02 09:58:15;;;;;;;;;;;;;;;;;;5086098;28;19908;-69
2023/03/02 10:00:42;;;;;;;;;;;;;;;;;;5088619;28;19912;-69
2023/03/02 10:03:08;;;;;;;;;;;;;;;;;;5110302;28;20288;-68
2023/03/02 10:05:34;;;;;;;;;;;;;;;;;;5108856;28;19912;-69
2023/03/02 10:08:00;;;;;;;;;;;;;;;;;;5073638;28;19919;-69
2023/03/02 10:10:26;;;;;;;;;;;;;;;;;;5095202;28;19912;-71
2023/03/02 10:12:52;;;;;;;;;;;;;;;;;;5104284;28;19912;-69
2023/03/02 10:15:18;;;;;;;;;;;;;;;;;;5108981;28;19912;-69
2023/03/02 10:17:45;;;;;;;;;;;;;;;;;;5107468;28;19920;-68
2023/03/02 10:20:11;;;;;;;;;;;;;;;;;;5109415;28;19969;-68
2023/03/02 10:22:37;;;;;;;;;;;;;;;;;;5111319;28;19961;-68
2023/03/02 10:25:03;;;;;;;;;;;;;;;;;;5104644;28;20015;-68
2023/03/02 10:27:29;;;;;;;;;;;;;;;;;;5099631;28;19950;-69
2023/03/02 10:29:55;;;;;;;;;;;;;;;;;;5081411;28;20688;-68
2023/03/02 10:32:22;;;;;;;;;;;;;;;;;;5084655;28;20011;-68
2023/03/02 10:34:48;;;;;;;;;;;;;;;;;;5090390;28;19911;-68
2023/03/02 10:37:14;;;;;;;;;;;;;;;;;;5087060;28;19965;-69
2023/03/02 10:39:42;;;;;;;;;;;;;;;;;;5099726;28;19912;-68
2023/03/02 10:42:08;;;;;;;;;;;;;;;;;;5105180;28;19930;-68
2023/03/02 10:44:36;;;;;;;;;;;;;;;;;;5107440;28;19912;-69
2023/03/02 10:47:02;;;;;;;;;;;;;;;;;;5081282;28;19918;-68
2023/03/02 10:49:28;;;;;;;;;;;;;;;;;;5100611;28;20003;-67
2023/03/02 10:51:54;;;;;;;;;;;;;;;;;;5101314;28;19919;-68
2023/03/02 10:54:20;;;;;;;;;;;;;;;;;;5071810;28;19920;-68
2023/03/02 10:56:46;;;;;;;;;;;;;;;;;;5079300;28;20258;-68
2023/03/02 10:59:12;;;;;;;;;;;;;;;;;;5089402;28;20002;-67
2023/03/02 11:01:38;;;;;;;;;;;;;;;;;;5086465;28;19916;-68
2023/03/02 11:04:04;;;;;;;;;;;;;;;;;;5087277;28;20441;-67
2023/03/02 11:06:30;;;;;;;;;;;;;;;;;;5078532;28;20517;-68
2023/03/02 11:08:56;;;;;;;;;;;;;;;;;;5072808;28;20091;-69
2023/03/02 11:11:22;;;;;;;;;;;;;;;;;;5081786;28;19912;-68
2023/03/02 11:13:48;;;;;;;;;;;;;;;;;;5090417;28;19915;-68
2023/03/02 11:16:14;;;;;;;;;;;;;;;;;;5083109;28;20018;-68
2023/03/02 11:18:40;;;;;;;;;;;;;;;;;;5090583;28;19994;-69
2023/03/02 11:21:06;;;;;;;;;;;;;;;;;;5088753;28;19935;-69
2023/03/02 11:23:32;;;;;;;;;;;;;;;;;;5080405;28;19920;-69
2023/03/02 11:25:58;;;;;;;;;;;;;;;;;;5079798;28;20366;-69
2023/03/02 11:28:26;;;;;;;;;;;;;;;;;;5081889;28;19912;-70
2023/03/02 11:30:52;;;;;;;;;;;;;;;;;;5076404;28;19913;-70
2023/03/02 11:33:18;;;;;;;;;;;;;;;;;;5085676;28;20405;-69
2023/03/02 11:35:44;;;;;;;;;;;;;;;;;;5085903;28;19927;-69
2023/03/02 11:38:10;;;;;;;;;;;;;;;;;;5091718;28;19923;-68
2023/03/02 11:40:36;;;;;;;;;;;;;;;;;;5065506;28;20316;-67
2023/03/02 11:43:05;;;;;;;;;;;;;;;;;;5035226;28;19922;-68
2023/03/02 11:45:31;;;;;;;;;;;;;;;;;;5046704;28;19913;-67
2023/03/02 11:47:57;;;;;;;;;;;;;;;;;;5049291;28;19913;-68
2023/03/02 11:50:23;;;;;;;;;;;;;;;;;;5052067;28;19913;-67
2023/03/02 11:52:49;;;;;;;;;;;;;;;;;;5043994;28;19909;-68
2023/03/02 11:55:15;;;;;;;;;;;;;;;;;;5062422;28;19977;-67
2023/03/02 11:57:44;;;;;;;;;;;;;;;;;;5055721;28;19913;-67
2023/03/02 12:01:35;;;;;;;;;;;;;;;;;;5107072;27;20330;-67
2023/03/02 12:04:01;;;;;;;;;;;;;;;;;;5108082;28;19919;-67
2023/03/02 12:06:27;;;;;;;;;;;;;;;;;;5107619;28;19912;-67
2023/03/02 12:08:53;;;;;;;;;;;;;;;;;;5108210;28;20173;-67
2023/03/02 12:11:19;;;;;;;;;;;;;;;;;;5096246;28;19912;-67
2023/03/02 12:13:45;;;;;;;;;;;;;;;;;;5096513;28;19952;-67
2023/03/02 12:16:11;;;;;;;;;;;;;;;;;;5093360;28;19913;-67
2023/03/02 12:18:37;;;;;;;;;;;;;;;;;;5094475;28;19957;-66
2023/03/02 12:21:03;;;;;;;;;;;;;;;;;;5089253;28;20007;-66
2023/03/02 12:27:05;;;;;;;;;;;;;;;;;;5099342;27;19927;-67
2023/03/02 12:29:31;;;;;;;;;;;;;;;;;;5107210;28;19912;-67
2023/03/02 12:33:29;;;;;;;;;;;;;;;;;;5087024;27;19942;-66
2023/03/02 12:35:56;;;;;;;;;;;;;;;;;;5092552;28;20295;-66
2023/03/02 12:38:21;;;;;;;;;;;;;;;;;;5086014;28;19977;-66
2023/03/02 12:40:47;;;;;;;;;;;;;;;;;;5084257;28;20361;-67
2023/03/02 12:43:14;;;;;;;;;;;;;;;;;;5089481;28;20295;-67
2023/03/02 12:46:06;;;;;;;;;;;;;;;;;;5109120;27;20302;-69
2023/03/02 12:48:32;;;;;;;;;;;;;;;;;;5092582;28;19920;-67
2023/03/02 12:50:58;;;;;;;;;;;;;;;;;;5101639;28;19912;-66
2023/03/02 12:53:24;;;;;;;;;;;;;;;;;;5087337;28;20003;-66
2023/03/02 12:55:49;;;;;;;;;;;;;;;;;;5086503;28;19908;-67
2023/03/02 12:58:16;;;;;;;;;;;;;;;;;;5085919;28;19912;-67
2023/03/02 13:00:42;;;;;;;;;;;;;;;;;;5085932;28;20368;-66
2023/03/02 13:03:08;;;;;;;;;;;;;;;;;;5087849;28;19954;-65
2023/03/02 13:07:40;;;;;;;;;;;;;;;;;;5104956;27;19920;-65
2023/03/02 13:10:06;;;;;;;;;;;;;;;;;;5090304;28;19920;-65
2023/03/02 13:12:32;;;;;;;;;;;;;;;;;;5078301;28;19912;-65
2023/03/02 13:16:21;;;;;;;;;;;;;;;;;;5080020;27;19927;-66
2023/03/02 13:18:48;;;;;;;;;;;;;;;;;;5077505;28;19962;-67
2023/03/02 13:24:32;;;;;;;;;;;;;;;;;;5098368;27;19924;-68
2023/03/02 13:26:58;;;;;;;;;;;;;;;;;;5095070;28;19916;-68
2023/03/02 13:29:24;;;;;;;;;;;;;;;;;;5088225;28;19912;-68
2023/03/02 13:31:50;;;;;;;;;;;;;;;;;;5093581;28;20312;-69
2023/03/02 13:35:38;;;;;;;;;;;;;;;;;;5045444;28;19927;-66
2023/03/02 13:38:04;;;;;;;;;;;;;;;;;;5048705;28;20284;-68
2023/03/02 13:40:51;;;;;;;;;;;;;;;;;;5099550;27;19924;-67
2023/03/02 13:43:19;;;;;;;;;;;;;;;;;;5085200;28;20636;-68
2023/03/02 13:49:44;;;;;;;;;;;;;;;;;;5105209;27;19943;-68
2023/03/02 13:55:25;;;;;;;;;;;;;;;;;;5068254;27;19938;-70
2023/03/02 13:57:51;;;;;;;;;;;;;;;;;;5099816;28;20349;-70
2023/03/02 14:00:17;;;;;;;;;;;;;;;;;;5067568;28;20012;-71
2023/03/02 14:04:44;;;;;;;;;;;;;;;;;;5088495;27;19912;-68
2023/03/02 14:07:10;;;;;;;;;;;;;;;;;;5088046;28;19916;-69
2023/03/02 14:09:56;;;;;;;;;;;;;;;;;;5107752;27;19919;-67
2023/03/02 14:14:06;;;;;;;;;;;;;;;;;;5111979;27;20434;-65
2023/03/02 14:16:35;;;;;;;;;;;;;;;;;;5114534;28;19922;-65
2023/03/02 14:19:01;;;;;;;;;;;;;;;;;;5129810;27;20002;-66
2023/03/02 14:21:27;;;;;;;;;;;;;;;;;;5128799;28;20014;-65
2023/03/02 14:23:53;;;;;;;;;;;;;;;;;;5128856;28;19912;-65
2023/03/02 14:26:19;;;;;;;;;;;;;;;;;;5131082;27;19915;-65
2023/03/02 14:28:45;;;;;;;;;;;;;;;;;;5131901;27;19946;-65
2023/03/02 14:31:11;;;;;;;;;;;;;;;;;;5131688;27;19908;-65
2023/03/02 14:33:37;;;;;;;;;;;;;;;;;;5131675;27;19963;-65
2023/03/02 14:36:04;;;;;;;;;;;;;;;;;;5130048;28;20304;-65
2023/03/02 14:38:30;;;;;;;;;;;;;;;;;;5130258;28;20421;-65
2023/03/02 14:40:56;;;;;;;;;;;;;;;;;;5131648;27;19912;-64
2023/03/02 14:43:24;;;;;;;;;;;;;;;;;;5131452;27;20002;-65
2023/03/02 14:45:50;;;;;;;;;;;;;;;;;;5131558;27;19915;-64
2023/03/02 14:48:16;;;;;;;;;;;;;;;;;;5131408;27;19917;-64
2023/03/02 14:50:42;;;;;;;;;;;;;;;;;;5131040;27;19908;-65
2023/03/02 14:53:08;;;;;;;;;;;;;;;;;;5130062;28;19922;-64
2023/03/02 14:55:35;;;;;;;;;;;;;;;;;;5131057;27;20002;-64
2023/03/02 14:58:01;;;;;;;;;;;;;;;;;;5130729;27;19909;-64
2023/03/02 15:00:27;;;;;;;;;;;;;;;;;;5130942;27;19914;-65
2023/03/02 15:02:53;;;;;;;;;;;;;;;;;;5131115;27;19919;-65
2023/03/02 15:05:19;;;;;;;;;;;;;;;;;;5130623;27;20379;-65
2023/03/02 15:07:45;;;;;;;;;;;;;;;;;;5131010;27;19994;-65
2023/03/02 15:10:11;;;;;;;;;;;;;;;;;;5130972;27;19907;-65
2023/03/02 15:12:37;;;;;;;;;;;;;;;;;;5130382;27;20014;-64
2023/03/02 15:15:03;;;;;;;;;;;;;;;;;;5130942;27;19907;-64
2023/03/02 15:17:29;;;;;;;;;;;;;;;;;;5129716;27;20272;-65
2023/03/02 15:19:55;;;;;;;;;;;;;;;;;;5129998;27;19943;-65
2023/03/02 15:22:21;;;;;;;;;;;;;;;;;;5128924;28;19915;-64
2023/03/02 15:24:47;;;;;;;;;;;;;;;;;;5105413;27;19912;-65
2023/03/02 15:27:13;;;;;;;;;;;;;;;;;;5095076;28;20387;-66
2023/03/02 15:29:39;;;;;;;;;;;;;;;;;;5097038;28;20335;-65
2023/03/02 15:32:05;;;;;;;;;;;;;;;;;;5095101;28;20410;-66
2023/03/02 15:34:30;;;;;;;;;;;;;;;;;;5096673;28;19919;-66
2023/03/02 15:36:56;;;;;;;;;;;;;;;;;;5096457;28;20003;-65
2023/03/02 15:39:22;;;;;;;;;;;;;;;;;;5095895;28;19912;-66
2023/03/02 15:41:48;;;;;;;;;;;;;;;;;;5096567;28;19916;-66
2023/03/02 15:44:14;;;;;;;;;;;;;;;;;;5096464;28;19914;-67
2023/03/02 15:46:40;;;;;;;;;;;;;;;;;;5096230;28;19908;-66
2023/03/02 15:49:06;;;;;;;;;;;;;;;;;;5096406;28;19919;-66
2023/03/02 15:51:32;;;;;;;;;;;;;;;;;;5095875;28;19947;-66
2023/03/02 15:53:58;;;;;;;;;;;;;;;;;;5096076;28;19923;-65
2023/03/02 15:56:24;;;;;;;;;;;;;;;;;;5096168;28;19908;-66
2023/03/02 15:58:50;;;;;;;;;;;;;;;;;;5096099;28;19915;-66
2023/03/02 16:01:16;;;;;;;;;;;;;;;;;;5095492;28;19961;-66
2023/03/02 16:03:42;;;;;;;;;;;;;;;;;;5094781;28;19908;-68
2023/03/02 16:06:08;;;;;;;;;;;;;;;;;;5096067;28;19909;-67
2023/03/02 16:08:34;;;;;;;;;;;;;;;;;;5095750;28;19908;-67
2023/03/02 16:10:59;;;;;;;;;;;;;;;;;;5095531;28;19921;-68
2023/03/02 16:13:25;;;;;;;;;;;;;;;;;;5095637;28;19927;-66
2023/03/02 16:15:51;;;;;;;;;;;;;;;;;;5095656;28;20364;-67
2023/03/02 16:18:17;;;;;;;;;;;;;;;;;;5095700;28;20360;-68
2023/03/02 16:20:43;;;;;;;;;;;;;;;;;;5095111;28;20372;-66
2023/03/02 16:23:09;;;;;;;;;;;;;;;;;;5095248;28;20352;-66
2023/03/02 16:25:36;;;;;;;;;;;;;;;;;;5095692;28;19908;-67
2023/03/02 16:28:02;;;;;;;;;;;;;;;;;;5094892;28;19998;-67
2023/03/02 16:30:28;;;;;;;;;;;;;;;;;;5093359;28;19959;-68
2023/03/02 16:32:54;;;;;;;;;;;;;;;;;;5095381;28;19916;-64
2023/03/02 16:35:20;;;;;;;;;;;;;;;;;;5094789;28;19958;-65
2023/03/02 16:37:46;;;;;;;;;;;;;;;;;;5094706;28;19912;-66
2023/03/02 16:40:12;;;;;;;;;;;;;;;;;;5105392;28;19908;-67
2023/03/02 16:42:38;;;;;;;;;;;;;;;;;;5094958;28;19908;-68
2023/03/02 16:45:04;;;;;;;;;;;;;;;;;;5106631;28;19908;-67
2023/03/02 16:47:30;;;;;;;;;;;;;;;;;;5114344;28;19947;-67
2023/03/02 16:49:56;;;;;;;;;;;;;;;;;;5102071;28;19919;-66
2023/03/02 16:52:23;;;;;;;;;;;;;;;;;;5093828;28;19950;-66
2023/03/02 16:54:49;;;;;;;;;;;;;;;;;;5094889;28;20266;-65
2023/03/02 16:57:15;;;;;;;;;;;;;;;;;;5092774;28;19908;-65
2023/03/02 16:59:41;;;;;;;;;;;;;;;;;;5092928;28;19915;-65
2023/03/02 17:02:07;;;;;;;;;;;;;;;;;;5092901;28;19908;-65
2023/03/02 17:04:35;;;;;;;;;;;;;;;;;;5092730;28;19935;-65